Time;durP1;ratioP1;P1;durP2;ratioP2;P2;SDS_P1;SDS_P2;PMS_P1;PMS_P2;Temp;Humidity;BMP_temperature;BMP_pressure;BME280_temperature;BME280_humidity;BME280_pressure;Samples;Min_cycle;Max_cycle;Signal;HPM_P1;HPM_P2
2022/10/20 00:02:07;;;;;;;15.43;12.80;;;12.80;99.90;;;;;;5071926;28;20662;-50
2022/10/20 00:04:34;;;;;;;13.73;12.33;;;12.80;99.90;;;;;;5079926;28;20204;-50
2022/10/20 00:07:02;;;;;;;15.60;12.33;;;12.70;99.90;;;;;;5083780;28;20818;-50
2022/10/20 00:09:30;;;;;;;15.33;13.23;;;12.70;99.90;;;;;;5084003;28;20196;-50
2022/10/20 00:11:57;;;;;;;16.80;12.87;;;12.80;99.90;;;;;;5080341;28;20201;-50
2022/10/20 00:14:24;;;;;;;17.87;13.43;;;12.70;99.90;;;;;;5082194;28;20611;-49
2022/10/20 00:16:51;;;;;;;18.80;14.13;;;12.70;99.90;;;;;;5078961;28;20212;-50
2022/10/20 00:19:18;;;;;;;18.17;13.97;;;12.70;99.90;;;;;;5089440;28;20231;-50
2022/10/20 00:21:45;;;;;;;14.37;12.87;;;12.70;99.90;;;;;;5091896;28;20619;-50
2022/10/20 00:24:13;;;;;;;15.03;13.20;;;12.70;99.90;;;;;;5091737;28;20235;-50
2022/10/20 00:26:40;;;;;;;17.53;14.63;;;12.70;99.90;;;;;;5090508;28;20200;-50
2022/10/20 00:29:07;;;;;;;18.50;14.17;;;12.70;99.90;;;;;;5089341;28;20199;-50
2022/10/20 00:31:35;;;;;;;19.23;14.80;;;12.70;99.90;;;;;;5088525;28;20196;-50
2022/10/20 00:34:02;;;;;;;17.20;14.17;;;12.70;99.90;;;;;;5079570;28;20221;-50
2022/10/20 00:36:29;;;;;;;15.97;13.00;;;12.80;99.90;;;;;;5071557;28;20672;-50
2022/10/20 00:39:00;;;;;;;18.03;14.80;;;12.80;99.90;;;;;;5071792;28;20203;-50
2022/10/20 00:41:30;;;;;;;17.93;14.40;;;12.80;99.90;;;;;;5078929;28;20213;-50
2022/10/20 00:43:59;;;;;;;17.97;13.80;;;12.80;99.90;;;;;;5090932;28;20223;-52
2022/10/20 00:46:31;;;;;;;20.63;14.27;;;12.80;99.90;;;;;;5083854;28;20547;-50
2022/10/20 00:49:02;;;;;;;16.67;13.80;;;12.80;99.90;;;;;;5080361;28;20212;-50
2022/10/20 00:51:31;;;;;;;15.87;12.10;;;12.80;99.90;;;;;;5090741;28;20201;-50
2022/10/20 00:54:03;;;;;;;13.60;11.50;;;12.70;99.90;;;;;;5079045;28;20227;-50
2022/10/20 00:56:32;;;;;;;14.83;11.20;;;12.60;99.90;;;;;;5078343;28;20253;-50
2022/10/20 00:59:01;;;;;;;15.03;12.13;;;12.60;99.90;;;;;;5080232;28;20657;-50
2022/10/20 01:01:29;;;;;;;13.73;11.70;;;12.60;99.90;;;;;;5083161;28;20200;-50
2022/10/20 01:03:56;;;;;;;13.77;12.37;;;12.60;99.90;;;;;;5086293;28;21008;-50
2022/10/20 01:06:24;;;;;;;12.17;10.97;;;12.60;99.90;;;;;;5075742;28;20200;-50
2022/10/20 01:08:52;;;;;;;13.73;12.20;;;12.60;99.90;;;;;;5079504;28;20193;-50
2022/10/20 01:11:30;;;;;;;13.70;11.07;;;12.50;99.90;;;;;;5077047;28;20208;-50
2022/10/20 01:14:15;;;;;;;17.00;13.10;;;12.40;99.90;;;;;;5086759;28;20288;-50
2022/10/20 01:16:50;;;;;;;13.00;11.17;;;12.30;99.90;;;;;;5090091;28;20210;-50
2022/10/20 01:19:52;;;;;;;14.80;12.30;;;12.30;99.90;;;;;;5088491;28;20207;-50
2022/10/20 01:22:57;;;;;;;13.90;12.07;;;12.30;99.90;;;;;;5077919;28;20200;-50
2022/10/20 01:25:32;;;;;;;14.70;11.80;;;12.20;99.90;;;;;;5071033;28;20242;-50
2022/10/20 01:28:06;;;;;;;13.63;12.27;;;12.10;99.90;;;;;;5080571;28;20254;-50
2022/10/20 01:30:36;;;;;;;13.57;11.90;;;12.10;99.90;;;;;;5085051;28;20203;-50
2022/10/20 01:33:13;;;;;;;18.00;13.63;;;12.00;99.90;;;;;;5078543;28;20215;-50
2022/10/20 01:35:53;;;;;;;15.30;12.20;;;12.00;99.90;;;;;;5094433;28;20259;-50
2022/10/20 01:38:28;;;;;;;15.50;12.17;;;12.00;99.90;;;;;;5085809;28;20200;-50
2022/10/20 01:41:00;;;;;;;13.47;12.07;;;12.00;99.90;;;;;;5088826;28;20248;-50
2022/10/20 01:43:31;;;;;;;14.67;11.93;;;12.00;99.90;;;;;;5092067;28;20222;-50
2022/10/20 01:45:59;;;;;;;17.50;11.80;;;11.90;99.90;;;;;;5078167;28;20241;-49
2022/10/20 01:48:31;;;;;;;17.83;14.20;;;11.90;99.90;;;;;;5093731;28;20260;-50
2022/10/20 01:50:59;;;;;;;14.37;12.63;;;11.90;99.90;;;;;;5092743;28;20806;-51
2022/10/20 01:53:26;;;;;;;18.63;13.80;;;11.90;99.90;;;;;;5079451;28;20270;-50
2022/10/20 01:55:57;;;;;;;19.30;13.40;;;11.90;99.90;;;;;;5078463;28;20609;-50
2022/10/20 01:58:54;;;;;;;16.53;13.00;;;11.90;99.90;;;;;;5089038;28;20193;-50
2022/10/20 02:01:29;;;;;;;14.90;12.30;;;12.00;99.90;;;;;;5086095;28;20647;-50
2022/10/20 02:03:59;;;;;;;15.90;13.73;;;12.00;99.90;;;;;;5094759;28;20220;-50
2022/10/20 02:06:37;;;;;;;17.53;12.50;;;12.00;99.90;;;;;;5094799;28;20673;-50
2022/10/20 02:09:07;;;;;;;14.23;12.27;;;12.00;99.90;;;;;;5089498;28;20207;-50
2022/10/20 02:11:43;;;;;;;13.63;12.17;;;12.00;99.90;;;;;;5084057;28;20325;-50
2022/10/20 02:14:15;;;;;;;14.00;12.33;;;12.10;99.90;;;;;;5080387;28;20220;-50
2022/10/20 02:16:46;;;;;;;13.97;12.37;;;12.00;99.90;;;;;;5087756;28;20201;-50
2022/10/20 02:19:15;;;;;;;12.80;11.03;;;12.00;99.90;;;;;;5083726;28;20245;-50
2022/10/20 02:21:42;;;;;;;13.70;12.30;;;12.00;99.90;;;;;;5080962;28;20905;-50
2022/10/20 02:24:11;;;;;;;13.00;11.70;;;11.90;99.90;;;;;;5081025;28;20775;-50
2022/10/20 02:26:40;;;;;;;15.93;12.00;;;11.90;99.90;;;;;;5079631;28;20251;-50
2022/10/20 02:29:14;;;;;;;21.43;12.70;;;11.90;99.90;;;;;;5078474;28;20196;-50
2022/10/20 02:31:42;;;;;;;15.53;11.77;;;11.80;99.90;;;;;;5092424;28;20194;-50
2022/10/20 02:34:10;;;;;;;14.37;11.07;;;11.80;99.90;;;;;;5079754;28;20273;-50
2022/10/20 02:36:39;;;;;;;12.57;11.27;;;11.80;99.90;;;;;;5093201;28;20245;-50
2022/10/20 02:55:57;;;;;;;12.53;10.67;;;11.70;99.90;;;;;;5084828;28;20239;-49
2022/10/20 02:58:25;;;;;;;16.93;12.37;;;11.60;99.90;;;;;;5088267;28;20217;-50
2022/10/20 03:00:52;;;;;;;13.73;10.23;;;11.70;99.90;;;;;;5081952;28;20228;-50
2022/10/20 03:03:19;;;;;;;14.23;11.83;;;11.60;99.90;;;;;;5073638;28;20248;-49
2022/10/20 03:05:46;;;;;;;16.70;12.13;;;11.60;99.90;;;;;;5088028;28;20242;-49
2022/10/20 03:08:14;;;;;;;14.43;12.07;;;11.60;99.90;;;;;;5082846;28;20255;-50
2022/10/20 03:10:41;;;;;;;16.97;13.40;;;11.70;99.90;;;;;;5083159;28;20190;-50
2022/10/20 03:13:10;;;;;;;17.43;13.37;;;11.70;99.90;;;;;;5082217;28;20265;-50
2022/10/20 03:15:37;;;;;;;15.43;12.47;;;11.70;99.90;;;;;;5079876;28;20615;-50
2022/10/20 03:18:05;;;;;;;15.83;11.47;;;11.80;99.90;;;;;;5085181;28;20207;-49
2022/10/20 03:20:32;;;;;;;12.73;10.67;;;11.80;99.90;;;;;;5090592;28;20276;-50
2022/10/20 03:22:59;;;;;;;14.27;11.27;;;11.90;99.90;;;;;;5084454;28;20228;-49
2022/10/20 03:25:26;;;;;;;12.10;10.90;;;11.80;99.90;;;;;;5093323;28;20201;-50
2022/10/20 03:27:53;;;;;;;12.30;11.10;;;11.80;99.90;;;;;;5081033;28;20735;-50
2022/10/20 03:30:22;;;;;;;12.00;10.80;;;11.80;99.90;;;;;;5087462;28;20253;-50
2022/10/20 03:32:49;;;;;;;12.03;10.83;;;11.80;99.90;;;;;;5089840;28;20220;-50
2022/10/20 03:35:16;;;;;;;11.50;9.77;;;11.70;99.90;;;;;;5085782;28;20208;-50
2022/10/20 03:37:43;;;;;;;10.40;9.27;;;11.70;99.90;;;;;;5082590;28;20806;-49
2022/10/20 03:40:10;;;;;;;11.30;10.07;;;11.60;99.90;;;;;;5085685;28;20708;-50
2022/10/20 03:42:37;;;;;;;14.17;10.37;;;11.60;99.90;;;;;;5092827;28;20221;-50
2022/10/20 03:45:05;;;;;;;10.37;8.77;;;11.50;99.90;;;;;;5087524;28;20200;-50
2022/10/20 03:47:33;;;;;;;10.47;9.47;;;11.50;99.90;;;;;;5079333;28;20720;-50
2022/10/20 03:50:00;;;;;;;11.00;8.50;;;11.50;99.90;;;;;;5072351;28;20253;-50
2022/10/20 03:52:27;;;;;;;10.27;9.20;;;11.50;99.90;;;;;;5083184;28;20217;-50
2022/10/20 03:54:54;;;;;;;11.70;10.03;;;11.50;99.90;;;;;;5072423;28;20257;-50
2022/10/20 03:57:21;;;;;;;10.17;9.17;;;11.50;99.90;;;;;;5075041;28;20195;-50
2022/10/20 03:59:48;;;;;;;10.00;8.63;;;11.50;99.90;;;;;;5081478;28;20661;-50
2022/10/20 04:02:26;;;;;;;8.80;8.10;;;11.50;99.90;;;;;;5091755;28;20200;-49
2022/10/20 04:04:54;;;;;;;9.57;8.73;;;11.50;99.90;;;;;;5091585;28;20234;-50
2022/10/20 04:07:21;;;;;;;9.50;8.70;;;11.50;99.90;;;;;;5084244;28;20194;-50
2022/10/20 04:09:48;;;;;;;15.27;9.87;;;11.50;99.90;;;;;;5072516;28;20201;-50
2022/10/20 04:12:15;;;;;;;9.97;9.07;;;11.40;99.90;;;;;;5086916;28;20196;-50
2022/10/20 04:14:42;;;;;;;10.70;9.73;;;11.40;99.90;;;;;;5090566;28;20666;-49
2022/10/20 04:17:09;;;;;;;10.73;9.53;;;11.40;99.90;;;;;;5085803;28;20250;-50
2022/10/20 04:19:36;;;;;;;10.93;9.83;;;11.50;99.90;;;;;;5081506;28;20245;-49
2022/10/20 04:22:04;;;;;;;9.97;9.10;;;11.50;99.90;;;;;;5070856;28;20272;-51
2022/10/20 04:24:34;;;;;;;10.03;9.13;;;11.50;99.90;;;;;;5070944;28;20669;-50
2022/10/20 04:27:01;;;;;;;9.53;8.63;;;11.50;99.90;;;;;;5073085;28;20291;-50
2022/10/20 04:29:28;;;;;;;8.80;8.07;;;11.50;99.90;;;;;;5078197;28;20194;-50
2022/10/20 04:31:55;;;;;;;8.10;7.43;;;11.50;99.90;;;;;;5090749;28;20210;-50
2022/10/20 04:34:23;;;;;;;9.23;8.43;;;11.40;99.90;;;;;;5091043;28;20220;-50
2022/10/20 04:36:50;;;;;;;7.83;7.13;;;11.40;99.90;;;;;;5087711;28;20196;-50
2022/10/20 04:39:18;;;;;;;7.77;7.13;;;11.30;99.90;;;;;;5076364;28;20670;-50
2022/10/20 04:41:45;;;;;;;8.23;7.63;;;11.20;99.90;;;;;;5091185;28;20313;-49
2022/10/20 04:44:12;;;;;;;9.90;9.10;;;11.20;99.90;;;;;;5090377;28;20226;-50
2022/10/20 04:46:40;;;;;;;8.27;7.43;;;11.20;99.90;;;;;;5078049;28;20639;-49
2022/10/20 04:49:07;;;;;;;9.57;7.80;;;11.10;99.90;;;;;;5074686;28;20243;-50
2022/10/20 04:51:34;;;;;;;9.77;8.87;;;11.10;99.90;;;;;;5070745;28;20205;-50
2022/10/20 04:54:01;;;;;;;9.13;8.30;;;11.10;99.90;;;;;;5070433;28;20227;-50
2022/10/20 04:56:30;;;;;;;10.37;9.30;;;11.10;99.90;;;;;;5070742;28;20671;-49
2022/10/20 04:58:58;;;;;;;8.67;7.97;;;11.00;99.90;;;;;;5074174;28;20214;-50
2022/10/20 05:01:27;;;;;;;10.90;7.93;;;11.00;99.90;;;;;;5090102;28;20230;-50
2022/10/20 05:03:54;;;;;;;9.27;8.27;;;11.00;99.90;;;;;;5094845;28;20223;-51
2022/10/20 05:06:23;;;;;;;9.77;8.87;;;11.00;99.90;;;;;;5076583;28;20291;-50
2022/10/20 05:08:52;;;;;;;9.03;8.17;;;11.00;99.90;;;;;;5094061;28;20547;-50
2022/10/20 05:11:21;;;;;;;10.90;9.77;;;11.00;99.90;;;;;;5095293;28;20195;-50
2022/10/20 05:13:51;;;;;;;8.97;8.17;;;10.90;99.90;;;;;;5087521;28;20215;-50
2022/10/20 05:16:18;;;;;;;9.13;8.33;;;10.90;99.90;;;;;;5080575;28;20282;-50
2022/10/20 05:18:50;;;;;;;9.53;8.67;;;10.90;99.90;;;;;;5076220;28;20282;-50
2022/10/20 05:21:19;;;;;;;10.93;9.80;;;10.80;99.90;;;;;;5093730;28;20217;-50
2022/10/20 05:23:50;;;;;;;8.47;7.67;;;10.80;99.90;;;;;;5092698;28;20276;-50
2022/10/20 05:26:18;;;;;;;10.13;9.23;;;10.80;99.90;;;;;;5093872;28;20204;-50
2022/10/20 05:28:51;;;;;;;9.27;8.47;;;10.80;99.90;;;;;;5082713;28;20878;-50
2022/10/20 05:31:20;;;;;;;10.47;9.43;;;10.70;99.90;;;;;;5080524;28;20246;-50
2022/10/20 05:33:51;;;;;;;10.50;9.50;;;10.70;99.90;;;;;;5083778;28;20315;-50
2022/10/20 05:36:20;;;;;;;10.27;9.33;;;10.60;99.90;;;;;;5081812;28;20200;-50
2022/10/20 05:38:47;;;;;;;11.83;8.73;;;10.60;99.90;;;;;;5081427;28;20264;-49
2022/10/20 05:41:16;;;;;;;10.43;9.33;;;10.60;99.90;;;;;;5074130;28;20636;-50
2022/10/20 05:43:49;;;;;;;10.07;9.10;;;10.60;99.90;;;;;;5073757;28;20314;-50
2022/10/20 05:46:18;;;;;;;14.70;13.40;;;10.70;99.90;;;;;;5074168;28;20302;-49
2022/10/20 05:48:49;;;;;;;13.27;11.97;;;10.70;99.90;;;;;;5082152;28;20738;-51
2022/10/20 05:51:18;;;;;;;13.23;11.63;;;10.70;99.90;;;;;;5080975;28;20199;-50
2022/10/20 05:53:47;;;;;;;12.57;11.27;;;10.70;99.90;;;;;;5076374;28;20224;-50
2022/10/20 05:56:16;;;;;;;12.50;11.30;;;10.60;99.90;;;;;;5080365;28;20247;-52
2022/10/20 05:58:47;;;;;;;13.57;12.27;;;10.60;99.90;;;;;;5082603;28;20197;-50
2022/10/20 06:01:19;;;;;;;12.53;11.03;;;10.60;99.90;;;;;;5085570;28;20553;-49
2022/10/20 06:03:50;;;;;;;11.50;10.47;;;10.60;99.90;;;;;;5081984;28;20229;-49
2022/10/20 06:06:19;;;;;;;11.83;10.77;;;10.60;99.90;;;;;;5075093;28;20211;-50
2022/10/20 06:08:46;;;;;;;13.20;11.93;;;10.60;99.90;;;;;;5082552;28;20256;-50
2022/10/20 06:11:14;;;;;;;14.27;12.07;;;10.60;99.90;;;;;;5088109;28;20258;-49
2022/10/20 06:13:42;;;;;;;13.93;10.73;;;10.70;99.90;;;;;;5083195;28;20311;-50
2022/10/20 06:16:10;;;;;;;10.20;9.30;;;10.80;99.90;;;;;;5081173;28;20200;-49
2022/10/20 06:18:39;;;;;;;10.87;9.87;;;10.80;99.90;;;;;;5077691;28;20199;-50
2022/10/20 06:21:08;;;;;;;10.53;9.53;;;10.90;99.90;;;;;;5080206;28;20225;-50
2022/10/20 06:23:35;;;;;;;18.77;10.13;;;10.90;99.90;;;;;;5081824;28;20284;-49
2022/10/20 06:26:03;;;;;;;14.80;11.77;;;10.90;99.90;;;;;;5083616;28;20616;-50
2022/10/20 06:28:31;;;;;;;13.73;12.20;;;10.90;99.90;;;;;;5084975;28;20202;-51
2022/10/20 06:30:59;;;;;;;10.97;9.37;;;11.00;99.90;;;;;;5078837;28;20287;-49
2022/10/20 06:33:30;;;;;;;11.00;9.90;;;11.10;99.90;;;;;;5082584;28;20238;-50
2022/10/20 06:36:00;;;;;;;11.40;9.43;;;11.20;99.90;;;;;;5083896;28;20692;-50
2022/10/20 06:38:28;;;;;;;12.10;10.80;;;11.20;99.90;;;;;;5078452;28;20231;-50
2022/10/20 06:40:55;;;;;;;20.77;14.37;;;11.30;99.90;;;;;;5077759;28;20197;-49
2022/10/20 06:43:22;;;;;;;16.73;14.53;;;11.30;99.90;;;;;;5077804;28;20588;-50
2022/10/20 06:45:59;;;;;;;15.77;14.13;;;11.30;99.90;;;;;;5072845;28;20197;-50
2022/10/20 06:48:27;;;;;;;16.83;13.90;;;11.40;99.90;;;;;;5080323;28;20253;-50
2022/10/20 06:50:57;;;;;;;16.57;13.27;;;11.40;99.90;;;;;;5078646;28;20235;-50
2022/10/20 06:53:34;;;;;;;14.93;12.70;;;11.60;99.90;;;;;;5083286;28;20687;-49
2022/10/20 06:56:03;;;;;;;21.00;11.97;;;11.70;99.90;;;;;;5084251;28;20206;-50
2022/10/20 06:58:30;;;;;;;15.13;11.07;;;11.70;99.90;;;;;;5073233;28;20269;-49
2022/10/20 07:01:00;;;;;;;11.77;10.57;;;11.80;99.90;;;;;;5076749;28;20214;-50
2022/10/20 07:03:28;;;;;;;10.97;9.90;;;12.00;99.90;;;;;;5086551;28;20626;-50
2022/10/20 07:05:55;;;;;;;9.67;8.77;;;12.10;99.90;;;;;;5086803;28;20203;-50
2022/10/20 07:08:23;;;;;;;11.70;10.60;;;12.20;99.90;;;;;;5078530;28;20711;-49
2022/10/20 07:11:00;;;;;;;11.57;10.23;;;12.40;99.90;;;;;;5080663;28;20218;-50
2022/10/20 07:13:28;;;;;;;18.97;11.13;;;12.50;99.90;;;;;;5089487;28;20309;-50
2022/10/20 07:15:55;;;;;;;12.47;10.23;;;12.60;99.90;;;;;;5084908;28;20261;-50
2022/10/20 07:18:22;;;;;;;13.63;11.20;;;12.70;99.90;;;;;;5090519;28;20196;-50
2022/10/20 07:20:50;;;;;;;16.43;11.83;;;12.80;99.90;;;;;;5079377;28;20674;-50
2022/10/20 07:23:17;;;;;;;15.20;12.07;;;12.80;99.90;;;;;;5080096;28;20324;-50
2022/10/20 07:25:44;;;;;;;14.53;10.47;;;12.90;99.90;;;;;;5082965;28;20226;-50
2022/10/20 07:28:12;;;;;;;13.57;11.53;;;13.00;99.90;;;;;;5089544;28;20195;-50
2022/10/20 07:30:40;;;;;;;13.63;9.97;;;13.30;99.90;;;;;;5091399;28;20204;-50
2022/10/20 07:33:08;;;;;;;16.47;12.30;;;13.40;99.90;;;;;;5079648;28;20622;-50
2022/10/20 07:35:35;;;;;;;18.33;12.93;;;13.50;99.90;;;;;;5080908;28;20229;-50
2022/10/20 07:38:03;;;;;;;15.63;11.97;;;13.70;99.90;;;;;;5089005;28;20218;-50
2022/10/20 07:40:30;;;;;;;17.23;12.20;;;13.70;99.90;;;;;;5087800;28;20197;-50
2022/10/20 07:42:57;;;;;;;16.30;14.57;;;13.80;99.90;;;;;;5072534;28;20231;-51
2022/10/20 07:45:26;;;;;;;18.57;13.03;;;13.90;99.90;;;;;;5081994;28;20200;-50
2022/10/20 07:47:53;;;;;;;15.27;12.97;;;14.10;99.90;;;;;;5090226;28;20857;-51
2022/10/20 07:50:20;;;;;;;16.20;13.17;;;14.20;99.90;;;;;;5083713;28;20197;-50
2022/10/20 07:52:51;;;;;;;20.00;14.03;;;14.20;99.90;;;;;;5074601;28;20218;-51
2022/10/20 07:55:18;;;;;;;17.50;13.17;;;14.30;99.90;;;;;;5072749;28;20651;-50
2022/10/20 07:57:45;;;;;;;19.37;13.60;;;14.40;99.90;;;;;;5073514;28;20605;-50
2022/10/20 08:00:13;;;;;;;18.67;13.37;;;14.50;99.90;;;;;;5083598;28;20199;-50
2022/10/20 08:02:41;;;;;;;18.93;11.97;;;14.70;99.90;;;;;;5075071;28;20229;-50
2022/10/20 08:05:09;;;;;;;17.03;12.57;;;14.80;99.90;;;;;;5071991;28;20739;-50
2022/10/20 08:07:36;;;;;;;17.50;12.90;;;14.90;99.90;;;;;;5072201;28;20200;-51
2022/10/20 08:10:03;;;;;;;14.10;10.27;;;14.90;99.90;;;;;;5081944;28;20200;-50
2022/10/20 08:12:30;;;;;;;14.30;10.97;;;15.00;99.90;;;;;;5076795;28;20221;-50
2022/10/20 08:14:57;;;;;;;11.30;10.07;;;15.00;99.90;;;;;;5071773;28;20201;-51
2022/10/20 08:17:25;;;;;;;14.23;9.93;;;15.00;99.90;;;;;;5073170;28;20200;-50
2022/10/20 08:19:53;;;;;;;23.93;13.40;;;15.10;99.90;;;;;;5086173;28;20675;-49
2022/10/20 08:22:20;;;;;;;18.77;13.80;;;15.20;99.90;;;;;;5088166;28;20277;-50
2022/10/20 08:24:47;;;;;;;20.27;14.03;;;15.10;99.90;;;;;;5077904;28;20246;-50
2022/10/20 08:27:14;;;;;;;19.47;12.70;;;15.20;99.90;;;;;;5080152;28;20193;-50
2022/10/20 08:29:41;;;;;;;22.57;15.20;;;15.20;99.90;;;;;;5089185;28;20200;-50
2022/10/20 08:32:09;;;;;;;18.73;14.23;;;15.10;99.90;;;;;;5079033;28;20193;-50
2022/10/20 08:34:36;;;;;;;23.57;14.80;;;14.90;99.90;;;;;;5071671;28;20295;-50
2022/10/20 08:37:04;;;;;;;22.73;16.03;;;15.00;99.90;;;;;;5075407;28;20262;-49
2022/10/20 08:39:31;;;;;;;25.17;16.87;;;15.10;99.90;;;;;;5081758;28;20193;-50
2022/10/20 08:41:59;;;;;;;24.87;18.90;;;15.30;99.90;;;;;;5083510;28;20213;-50
2022/10/20 08:44:30;;;;;;;24.50;16.20;;;15.40;99.90;;;;;;5091813;28;20232;-50
2022/10/20 08:46:59;;;;;;;33.57;19.03;;;15.60;99.90;;;;;;5091837;28;20674;-50
2022/10/20 08:49:29;;;;;;;24.03;17.03;;;16.20;99.90;;;;;;5088225;28;20196;-50
2022/10/20 08:51:57;;;;;;;30.07;19.30;;;16.70;99.90;;;;;;5091872;28;20611;-50
2022/10/20 08:54:25;;;;;;;26.40;17.27;;;17.10;99.90;;;;;;5091554;28;20228;-50
2022/10/20 08:56:53;;;;;;;28.20;17.97;;;17.10;99.90;;;;;;5088600;28;20253;-50
2022/10/20 08:59:28;;;;;;;24.73;18.00;;;17.30;99.90;;;;;;5085966;28;20204;-50
2022/10/20 09:01:56;;;;;;;27.13;18.40;;;17.70;99.90;;;;;;5081665;28;20216;-50
2022/10/20 09:04:27;;;;;;;27.17;17.80;;;18.40;99.90;;;;;;5082017;28;20225;-51
2022/10/20 09:06:57;;;;;;;21.13;17.47;;;18.50;99.90;;;;;;5082251;28;20287;-50
2022/10/20 09:09:28;;;;;;;19.40;16.23;;;18.70;99.90;;;;;;5089141;28;20255;-50
2022/10/20 09:12:03;;;;;;;22.43;17.63;;;18.70;99.90;;;;;;5090726;28;20203;-50
2022/10/20 09:14:35;;;;;;;19.40;16.77;;;18.30;99.90;;;;;;5081388;28;20200;-50
2022/10/20 09:17:02;;;;;;;21.47;15.73;;;18.10;99.90;;;;;;5071519;28;20251;-51
2022/10/20 09:19:30;;;;;;;19.37;14.40;;;17.70;99.90;;;;;;5079147;28;20201;-50
2022/10/20 09:21:59;;;;;;;17.30;15.23;;;17.70;99.90;;;;;;5082906;28;20266;-50
2022/10/20 09:24:29;;;;;;;16.33;14.57;;;17.90;99.90;;;;;;5090361;28;20224;-50
2022/10/20 09:26:57;;;;;;;18.43;14.87;;;17.50;99.90;;;;;;5079641;28;20651;-50
2022/10/20 09:29:35;;;;;;;24.43;14.40;;;17.60;99.90;;;;;;5072247;28;20270;-50
2022/10/20 09:32:02;;;;;;;17.03;15.00;;;17.50;99.90;;;;;;5076266;28;20197;-50
2022/10/20 09:34:31;;;;;;;20.45;15.40;;;17.40;99.90;;;;;;5073260;28;20460;-50
2022/10/20 09:37:03;;;;;;;21.63;16.37;;;17.20;99.90;;;;;;5076514;28;20227;-50
2022/10/20 09:39:37;;;;;;;22.00;16.13;;;17.00;99.90;;;;;;5073698;28;20577;-50
2022/10/20 09:42:07;;;;;;;25.07;17.67;;;16.90;99.90;;;;;;5075819;28;20224;-50
2022/10/20 09:44:45;;;;;;;24.27;16.57;;;16.70;99.90;;;;;;5079246;28;20200;-50
2022/10/20 09:47:15;;;;;;;32.37;19.17;;;16.60;99.90;;;;;;5074595;28;20193;-50
2022/10/20 09:49:44;;;;;;;24.47;17.80;;;16.50;99.90;;;;;;5081042;28;20205;-50
2022/10/20 09:52:18;;;;;;;24.80;17.03;;;16.50;99.90;;;;;;5089163;28;20197;-50
2022/10/20 09:54:49;;;;;;;27.53;19.13;;;16.60;99.90;;;;;;5083452;28;20233;-51
2022/10/20 09:57:19;;;;;;;30.03;18.40;;;16.40;99.90;;;;;;5080729;28;20263;-50
2022/10/20 09:59:48;;;;;;;26.83;18.17;;;16.30;99.90;;;;;;5085032;28;20215;-50
2022/10/20 10:02:30;;;;;;;21.80;17.50;;;16.30;99.90;;;;;;5081782;28;20225;-50
2022/10/20 10:05:18;;;;;;;23.23;17.00;;;16.30;99.90;;;;;;5082146;28;20242;-51
2022/10/20 10:07:56;;;;;;;20.97;16.83;;;16.40;99.90;;;;;;5081659;28;20292;-50
2022/10/20 10:10:27;;;;;;;25.73;16.93;;;16.40;99.90;;;;;;5082375;28;20612;-50
2022/10/20 10:12:56;;;;;;;25.20;18.27;;;16.40;99.90;;;;;;5086343;28;20273;-50
2022/10/20 10:15:29;;;;;;;23.53;18.10;;;16.30;99.90;;;;;;5082646;28;20197;-50
2022/10/20 10:17:56;;;;;;;25.97;18.10;;;16.10;99.90;;;;;;5074807;28;20204;-50
2022/10/20 10:20:35;;;;;;;29.37;18.23;;;16.20;99.90;;;;;;5074610;28;20282;-50
2022/10/20 10:23:19;;;;;;;23.33;17.83;;;16.00;99.90;;;;;;5090923;28;20281;-51
2022/10/20 10:25:48;;;;;;;26.10;18.53;;;16.00;99.90;;;;;;5085627;28;20284;-51
2022/10/20 10:28:29;;;;;;;24.10;17.20;;;16.00;99.90;;;;;;5080710;28;20209;-50
2022/10/20 10:31:20;;;;;;;25.50;17.77;;;16.00;99.90;;;;;;5082500;28;20205;-50
2022/10/20 10:33:52;;;;;;;22.77;17.40;;;16.10;99.90;;;;;;5075283;28;20209;-51
2022/10/20 10:36:27;;;;;;;22.70;17.67;;;16.00;99.90;;;;;;5094273;28;20188;-51
2022/10/20 10:38:55;;;;;;;22.80;16.70;;;16.10;99.90;;;;;;5094194;28;20199;-50
2022/10/20 10:41:40;;;;;;;23.80;17.07;;;16.10;99.90;;;;;;5091311;28;20197;-50
2022/10/20 10:44:13;;;;;;;22.93;16.43;;;16.10;99.90;;;;;;5078485;28;20216;-50
2022/10/20 10:47:00;;;;;;;20.80;16.03;;;16.10;99.90;;;;;;5080507;28;20197;-50
2022/10/20 10:49:41;;;;;;;21.70;16.30;;;16.00;99.90;;;;;;5087589;28;20250;-50
2022/10/20 10:52:22;;;;;;;24.40;18.17;;;16.00;99.90;;;;;;5087960;28;20250;-50
2022/10/20 10:55:01;;;;;;;23.97;17.37;;;16.00;99.90;;;;;;5080894;28;20193;-51
2022/10/20 10:57:36;;;;;;;24.67;16.57;;;16.20;99.90;;;;;;5074101;28;20200;-49
2022/10/20 11:00:12;;;;;;;20.50;16.33;;;16.10;99.90;;;;;;5088771;28;20726;-50
2022/10/20 11:02:58;;;;;;;28.67;18.20;;;16.00;99.90;;;;;;5076636;28;20221;-51
2022/10/20 11:05:37;;;;;;;24.07;17.10;;;16.00;99.90;;;;;;5076663;28;20189;-50
2022/10/20 11:08:14;;;;;;;26.50;16.93;;;16.00;99.90;;;;;;5072857;28;20197;-50
2022/10/20 11:10:50;;;;;;;20.03;16.70;;;16.00;99.90;;;;;;5072867;28;20189;-50
2022/10/20 11:13:31;;;;;;;21.37;16.87;;;16.10;99.90;;;;;;5082790;28;20212;-50
2022/10/20 11:16:10;;;;;;;26.60;19.07;;;16.30;99.90;;;;;;5091546;28;20196;-51
2022/10/20 11:19:00;;;;;;;25.93;18.60;;;16.30;99.90;;;;;;5087898;28;20574;-50
2022/10/20 11:21:36;;;;;;;23.98;20.38;;;16.30;99.90;;;;;;5084997;28;20435;-50
2022/10/20 11:24:12;;;;;;;23.13;16.97;;;16.30;99.90;;;;;;5079941;28;20217;-51
2022/10/20 11:26:43;;;;;;;26.07;17.60;;;16.30;99.90;;;;;;5075316;28;20212;-51
2022/10/20 11:29:16;;;;;;;22.37;17.17;;;16.30;99.90;;;;;;5083149;28;20223;-51
2022/10/20 11:31:53;;;;;;;29.23;17.93;;;16.30;99.90;;;;;;5082722;28;20192;-51
2022/10/20 11:34:27;;;;;;;25.43;18.33;;;16.10;99.90;;;;;;5090618;28;20697;-51
2022/10/20 11:37:01;;;;;;;22.00;17.80;;;16.10;99.90;;;;;;5077692;28;20211;-51
2022/10/20 11:39:36;;;;;;;24.87;17.63;;;16.10;99.90;;;;;;5073232;28;20215;-52
2022/10/20 11:42:18;;;;;;;27.07;17.17;;;16.10;99.90;;;;;;5090767;28;20222;-50
2022/10/20 11:44:48;;;;;;;22.20;15.60;;;16.20;99.90;;;;;;5074835;28;20197;-51
2022/10/20 11:47:21;;;;;;;21.87;17.53;;;16.00;99.90;;;;;;5081294;28;20251;-50
2022/10/20 11:49:48;;;;;;;22.33;18.00;;;16.20;99.90;;;;;;5078475;28;20670;-50
2022/10/20 11:52:44;;;;;;;22.27;17.13;;;16.10;99.90;;;;;;5072078;28;20204;-50
2022/10/20 11:55:45;;;;;;;19.77;16.50;;;16.10;99.90;;;;;;5086316;28;20576;-50
2022/10/20 11:58:27;;;;;;;20.10;16.27;;;16.10;99.90;;;;;;5090531;28;20204;-51
2022/10/20 12:01:17;;;;;;;24.83;17.70;;;16.20;99.90;;;;;;5090429;28;20270;-50
2022/10/20 12:04:23;;;;;;;21.57;16.17;;;16.20;99.90;;;;;;5088240;28;20224;-50
2022/10/20 12:07:20;;;;;;;20.00;15.87;;;16.20;99.90;;;;;;5080228;28;20204;-51
2022/10/20 12:10:09;;;;;;;20.50;15.93;;;16.20;99.90;;;;;;5072515;28;21224;-50
2022/10/20 12:12:42;;;;;;;20.67;15.57;;;16.20;99.90;;;;;;5088389;28;20542;-51
2022/10/20 12:15:22;;;;;;;23.50;18.10;;;16.20;99.90;;;;;;5078004;28;20602;-50
2022/10/20 12:17:52;;;;;;;22.03;16.53;;;16.30;99.90;;;;;;5080444;28;20304;-50
2022/10/20 12:20:48;;;;;;;22.87;16.37;;;16.30;99.90;;;;;;5082257;28;20200;-51
2022/10/20 12:23:53;;;;;;;25.27;16.47;;;16.40;99.90;;;;;;5081375;28;20286;-50
2022/10/20 12:26:53;;;;;;;25.10;17.93;;;16.30;99.90;;;;;;5074985;28;20211;-50
2022/10/20 12:29:47;;;;;;;24.07;18.23;;;16.10;99.90;;;;;;5082082;28;20200;-50
2022/10/20 12:33:15;;;;;;;21.33;17.63;;;16.20;99.90;;;;;;5071709;28;20334;-51
2022/10/20 12:35:58;;;;;;;25.53;17.87;;;16.10;99.90;;;;;;5072726;28;20193;-51
2022/10/20 12:38:26;;;;;;;24.67;17.77;;;16.10;99.90;;;;;;5078980;28;20628;-51
2022/10/20 12:40:57;;;;;;;23.17;17.10;;;16.30;99.90;;;;;;5072038;28;20201;-51
2022/10/20 12:43:29;;;;;;;19.67;16.53;;;16.40;99.90;;;;;;5073697;28;20244;-51
2022/10/20 12:45:59;;;;;;;21.33;16.93;;;16.50;99.90;;;;;;5073256;28;20209;-51
2022/10/20 12:48:29;;;;;;;20.43;15.90;;;16.60;99.90;;;;;;5072962;28;20192;-51
2022/10/20 12:51:06;;;;;;;23.23;17.10;;;16.70;99.90;;;;;;5081291;28;20584;-51
2022/10/20 12:53:34;;;;;;;28.27;17.67;;;16.80;99.90;;;;;;5090468;28;20605;-52
2022/10/20 12:56:05;;;;;;;20.70;17.13;;;16.80;99.90;;;;;;5071466;28;20258;-50
2022/10/20 12:58:34;;;;;;;19.83;16.57;;;16.80;99.90;;;;;;5071580;28;20899;-51
2022/10/20 13:01:08;;;;;;;22.47;17.43;;;16.80;99.90;;;;;;5088774;28;20226;-51
2022/10/20 13:03:42;;;;;;;26.30;18.53;;;16.80;99.90;;;;;;5081230;28;20215;-51
2022/10/20 13:06:40;;;;;;;21.57;17.10;;;16.80;99.90;;;;;;5070451;28;20224;-51
2022/10/20 13:09:23;;;;;;;21.97;15.87;;;16.90;99.90;;;;;;5008860;28;20293;-51
2022/10/20 13:11:59;;;;;;;25.47;18.30;;;17.00;99.90;;;;;;5079291;28;20248;-51